Latest Weather Observations for Wangaratta

IDV60801

Issued at 5:32 pm EDT Saturday 10 December 2022 (issued every 10 minutes, with the page automatically refreshed every 10 minutes)

About weather observations | Map of weather stations | Latest weather observations for VIC | Other Formats
Station Details ID: 082138 Name: WANGARATTA AERO Lat: -36.42 Lon: 146.31 Height: 152.6 m
Data from the previous 72 hours. | See also: Recent months at Wangaratta
Date/Time
EDT
Temp
°C
App
Temp
°C
Dew
Point
°C
Rel
Hum
%
Delta-T
°C
Wind Press
QNH
hPa
Press
MSL
hPa
Rain since
9am
mm
Dir  Spd
km/h
Gust
km/h
Spd
kts
Gust
kts
10/05:30pm 25.6 22.0 2.9 23 11.2 N 11 19 6 10 1011.0 1010.5 0.0
10/05:00pm 25.6 22.5 3.6 24 10.9 NE 9 13 5 7 1011.4 1010.9 0.0
10/04:30pm 25.6 22.5 3.6 24 10.9 NNW 9 15 5 8 1011.9 1011.3 0.0
10/04:00pm 25.8 22.7 5.4 27 10.5 ENE 11 24 6 13 1012.2 1011.7 0.0
10/03:30pm 24.4 20.4 4.7 28 9.9 NNE 15 20 8 11 1013.0 1012.5 0.0
10/03:00pm 24.6 21.9 3.8 26 10.3 NNE 7 17 4 9 1013.3 1012.8 0.0
10/02:30pm 24.0 20.9 5.4 30 9.5 N 11 19 6 10 1013.8 1013.3 0.0
10/02:00pm 23.5 19.1 4.9 30 9.3 NNE 17 30 9 16 1014.3 1013.8 0.0
10/01:30pm 23.8 20.0 3.7 27 9.9 NNE 13 22 7 12 1014.6 1014.1 0.0
10/01:00pm 23.3 19.0 5.2 31 9.1 N 17 22 9 12 1015.0 1014.5 0.0
10/12:30pm 22.4 17.5 4.9 32 8.7 NNE 20 30 11 16 1015.6 1015.1 0.0
10/12:00pm 21.8 18.1 6.1 36 8.0 N 15 26 8 14 1016.0 1015.5 0.0
10/11:30am 21.0 16.9 6.2 38 7.5 NNE 17 28 9 15 1016.2 1015.7 0.0
10/11:00am 20.4 15.9 6.0 39 7.2 NE 19 28 10 15 1016.3 1015.8 0.0
10/10:30am 20.0 15.9 6.4 41 6.9 NNE 17 26 9 14 1016.5 1016.0 0.0
10/10:00am 18.9 16.0 6.7 45 6.1 NE 11 15 6 8 1016.7 1016.2 0.0
10/09:30am 17.4 13.8 5.0 44 6.0 N 13 19 7 10 1017.1 1016.6 0.0
10/09:00am 16.7 14.1 4.4 44 5.8 ENE 7 13 4 7 1017.2 1016.7 0.0
10/08:30am 15.5 13.1 5.1 50 5.0 E 7 11 4 6 1017.1 1016.6 0.0
10/08:00am 13.7 10.8 4.6 54 4.2 E 9 13 5 7 1016.8 1016.3 0.0
10/07:30am 12.4 10.0 5.3 62 3.3 ESE 7 9 4 5 1016.7 1016.2 0.0
10/07:00am 11.2 9.2 6.3 72 2.3 ESE 6 7 3 4 1016.4 1015.9 0.0
10/06:30am 7.3 6.4 6.1 92 0.5 CALM 0 0 0 0 1016.2 1015.7 0.0
10/06:00am 6.7 4.5 5.5 92 0.5 SE 6 7 3 4 1015.8 1015.3 0.0
10/05:30am 7.3 5.5 5.4 88 0.9 NNE 4 7 2 4 1015.8 1015.3 0.0
10/05:00am 8.0 5.7 4.9 81 1.4 N 6 7 3 4 1015.4 1014.9 0.0
10/04:30am 7.3 6.2 5.3 87 0.9 CALM 0 0 0 0 1014.7 1014.2 0.0
10/04:00am 6.8 4.3 4.8 87 0.9 WSW 7 9 4 5 1014.7 1014.2 0.0
10/03:30am 7.0 4.5 4.5 84 1.1 SW 7 9 4 5 1014.8 1014.3 0.0
10/03:00am 8.3 5.9 5.1 80 1.4 SW 7 7 4 4 1014.8 1014.3 0.0
10/02:30am 8.1 5.2 4.9 80 1.4 SW 9 9 5 5 1014.8 1014.3 0.0
10/02:00am 8.1 5.2 4.5 78 1.6 SW 9 11 5 6 1014.8 1014.3 0.0
10/01:30am 9.9 7.6 5.7 75 1.9 SSW 7 9 4 5 1015.0 1014.5 0.0
10/01:00am 9.3 6.4 4.9 74 2.0 SW 9 11 5 6 1015.2 1014.7 0.0
10/12:30am 10.9 8.1 5.2 68 2.6 S 9 11 5 6 1014.9 1014.4 0.0
10/12:00am 10.9 8.1 5.2 68 2.6 SSW 9 11 5 6 1015.0 1014.5 0.0
 
Date/Time
EDT
Temp
°C
App
Temp
°C
Dew
Point
°C
Rel
Hum
%
Delta-T
°C
Wind Press
QNH
hPa
Press
MSL
hPa
Rain since
9am
mm
Dir  Spd
km/h
Gust
km/h
Spd
kts
Gust
kts
09/11:30pm 12.2 9.5 5.4 63 3.2 S 9 11 5 6 1014.9 1014.4 0.0
09/11:00pm 12.2 9.8 5.1 62 3.3 SW 7 9 4 5 1015.0 1014.5 0.0
09/10:30pm 14.4 11.5 6.7 60 3.8 S 11 15 6 8 1014.8 1014.3 0.0
09/10:00pm 14.8 12.4 7.1 60 3.8 S 9 11 5 6 1014.6 1014.1 0.0
09/09:30pm 15.8 13.1 5.7 51 4.9 SE 9 11 5 6 1014.1 1013.6 0.0
09/09:00pm 15.6 12.5 7.1 57 4.2 SW 13 15 7 8 1013.5 1013.0 0.0
09/08:30pm 16.4 13.3 5.7 49 5.2 W 11 15 6 8 1013.2 1012.7 0.0
09/08:00pm 18.4 15.3 5.6 43 6.3 WSW 11 15 6 8 1013.0 1012.5 0.0
09/07:30pm 20.7 17.0 4.7 35 7.9 WSW 13 17 7 9 1012.8 1012.3 0.0
09/07:00pm 21.6 18.3 4.7 33 8.4 SW 11 15 6 8 1012.5 1012.0 0.0
09/06:30pm 21.9 18.7 4.9 33 8.4 SSW 11 19 6 10 1012.3 1011.8 0.0
09/06:00pm 21.7 18.7 4.3 32 8.5 SSW 9 17 5 9 1012.4 1011.9 0.0
09/05:30pm 21.9 18.4 3.6 30 8.9 SW 11 19 6 10 1012.5 1012.0 0.0
09/05:00pm 21.6 18.1 3.3 30 8.8 SW 11 24 6 13 1012.5 1012.0 0.0
09/04:30pm 21.7 17.9 3.9 31 8.7 SSW 13 22 7 12 1012.8 1012.3 0.0
09/04:00pm 21.4 18.4 1.7 27 9.2 SE 7 13 4 7 1012.9 1012.4 0.0
09/03:30pm 20.7 16.3 0.5 26 9.1 S 13 24 7 13 1013.1 1012.6 0.0
09/03:00pm 21.0 15.9 -2.1 21 9.9 SW 15 24 8 13 1013.4 1012.9 0.0
09/02:30pm 20.3 16.6 -2.7 21 9.7 SSE 7 15 4 8 1013.7 1013.2 0.0
09/02:00pm 19.5 15.4 0.0 27 8.6 S 11 17 6 9 1013.8 1013.3 0.0
09/01:30pm 19.2 15.2 0.8 29 8.3 SSE 11 17 6 9 1014.2 1013.7 0.0
09/01:00pm 18.9 15.2 0.0 28 8.3 SE 9 17 5 9 1014.6 1014.1 0.0
09/12:30pm 18.2 14.2 0.8 31 7.8 SW 11 20 6 11 1014.9 1014.4 0.0
09/12:00pm 16.9 12.5 0.1 32 7.3 SSW 13 20 7 11 1015.1 1014.6 0.0
09/11:30am 16.3 12.7 0.4 34 6.9 SSW 9 20 5 11 1015.3 1014.8 0.0
09/11:00am 15.5 11.2 1.3 38 6.2 S 13 28 7 15 1015.4 1014.9 0.0
09/10:30am 14.8 10.3 -0.1 36 6.3 SE 13 20 7 11 1015.6 1015.1 0.0
09/10:00am 14.6 10.3 1.2 40 5.8 ESE 13 22 7 12 1015.7 1015.2 0.0
09/09:30am 13.7 9.4 1.0 42 5.5 SSE 13 20 7 11 1015.9 1015.4 0.0
09/09:00am 13.6 8.2 2.2 46 5.0 SSE 20 30 11 16 1015.8 1015.3 0.0
09/08:30am 12.2 7.6 1.8 49 4.5 S 15 20 8 11 1015.7 1015.2 0.0
09/08:00am 11.0 6.6 2.6 56 3.6 S 15 20 8 11 1015.6 1015.1 0.0
09/07:30am 10.0 5.7 3.3 63 2.9 S 15 20 8 11 1015.4 1014.9 0.0
09/07:00am 8.8 5.7 3.8 71 2.2 SSW 9 15 5 8 1015.3 1014.8 0.0
09/06:30am 6.4 2.6 3.7 83 1.2 SSW 13 15 7 8 1014.9 1014.4 0.0
09/06:00am 4.9 0.5 2.8 86 0.9 SW 15 17 8 9 1014.5 1014.0 0.0
09/05:30am 4.5 1.6 2.7 88 0.7 SW 7 9 4 5 1014.2 1013.7 0.0
09/05:00am 5.8 2.9 2.6 80 1.3 ESE 7 9 4 5 1013.8 1013.3 0.0
09/04:30am 7.1 2.8 3.5 78 1.5 SSW 15 20 8 11 1013.6 1013.1 0.0
09/04:00am 7.7 3.4 3.2 73 1.9 SSW 15 17 8 9 1014.3 1013.8 0.0
09/03:30am 8.5 3.4 2.9 68 2.4 SSW 19 22 10 12 1014.4 1013.9 0.0
09/03:00am 8.1 3.3 2.6 68 2.3 SW 17 20 9 11 1014.5 1014.0 0.0
09/02:30am 7.4 2.7 2.9 73 1.9 WSW 17 22 9 12 1014.8 1014.3 0.0
09/02:00am 8.6 3.3 2.8 67 2.5 SW 20 26 11 14 1015.3 1014.8 0.0
09/01:30am 9.5 3.7 2.4 61 3.0 SW 22 30 12 16 1015.3 1014.8 0.0
09/01:00am 9.1 4.0 2.9 65 2.7 SW 19 24 10 13 1015.3 1014.8 0.0
09/12:30am 8.4 4.1 3.3 70 2.2 SW 15 19 8 10 1015.5 1015.0 0.0
09/12:00am 8.7 3.7 3.5 70 2.3 SW 19 22 10 12 1015.4 1014.9 0.0
 
Date/Time
EDT
Temp
°C
App
Temp
°C
Dew
Point
°C
Rel
Hum
%
Delta-T
°C
Wind Press
QNH
hPa
Press
MSL
hPa
Rain since
9am
mm
Dir  Spd
km/h
Gust
km/h
Spd
kts
Gust
kts
08/11:30pm 8.6 4.7 3.6 71 2.2 SW 13 17 7 9 1015.6 1015.1 0.0
08/11:00pm 9.0 5.1 3.4 68 2.4 SSW 13 15 7 8 1015.7 1015.2 0.0
08/10:30pm 9.7 5.4 3.2 64 2.8 SW 15 17 8 9 1015.5 1015.0 0.0
08/10:00pm 10.7 5.6 2.8 58 3.4 SW 19 24 10 13 1015.0 1014.5 0.0
08/09:30pm 11.8 6.6 2.5 53 4.1 SSW 19 26 10 14 1014.7 1014.2 0.0
08/09:00pm 12.2 6.3 1.5 48 4.6 SW 22 32 12 17 1014.4 1013.9 0.0
08/08:30pm 13.0 6.6 0.7 43 5.2 SW 24 32 13 17 1014.3 1013.8 0.0
08/08:00pm 14.0 7.7 1.3 42 5.5 SW 24 35 13 19 1014.0 1013.5 0.0
08/07:30pm 14.9 7.4 1.1 39 6.0 SW 30 43 16 23 1013.4 1012.9 0.0
08/07:00pm 15.8 7.9 0.8 36 6.5 SW 32 43 17 23 1013.0 1012.5 0.0
08/06:30pm 16.5 8.5 1.8 37 6.6 SW 33 46 18 25 1012.4 1011.9 0.0
08/06:00pm 17.2 10.5 1.6 35 7.0 SW 26 39 14 21 1012.2 1011.7 0.0
08/05:30pm 17.0 9.0 1.8 36 6.8 SW 33 48 18 26 1012.0 1011.4 0.0
08/05:00pm 17.6 10.5 1.6 34 7.2 SW 28 41 15 22 1011.9 1011.3 0.0
08/04:30pm 18.2 10.5 2.5 35 7.2 SW 32 43 17 23 1011.8 1011.2 0.0
08/04:00pm 17.9 10.4 3.4 38 6.8 SW 32 44 17 24 1012.2 1011.7 0.0
08/03:30pm 17.3 9.2 1.3 34 7.1 SW 33 48 18 26 1012.2 1011.7 0.0
08/03:00pm 18.0 10.9 3.5 38 6.8 SW 30 39 16 21 1012.3 1011.8 0.0
08/02:30pm 17.6 10.5 3.5 39 6.6 SW 30 44 16 24 1012.4 1011.9 0.0
08/02:00pm 17.5 10.3 3.0 38 6.7 SW 30 50 16 27 1012.4 1011.9 0.0
08/01:46pm 16.2 8.8 1.9 38 6.4 SW 30 48 16 26 1012.6 1012.1 0.0
08/01:30pm 15.8 9.0 2.9 42 5.9 SW 28 41 15 22 1012.7 1012.2 0.0
08/01:00pm 16.9 9.4 4.6 44 5.9 SW 33 43 18 23 1012.8 1012.3 0.0
08/12:30pm 16.0 8.8 3.1 42 5.9 SSW 30 46 16 25 1012.9 1012.4 0.0
08/12:00pm 15.7 7.8 1.1 37 6.4 SW 32 43 17 23 1012.9 1012.4 0.0
08/11:30am 14.6 6.9 2.2 43 5.5 SW 32 44 17 24 1012.9 1012.4 0.0
08/11:00am 14.6 7.7 2.5 44 5.4 SW 28 44 15 24 1012.8 1012.3 0.0
08/10:30am 14.1 7.3 3.0 47 5.0 WSW 28 46 15 25 1012.7 1012.2 0.0
08/10:00am 12.4 6.8 3.4 54 4.0 SSW 22 35 12 19 1012.6 1012.1 0.0
08/09:30am 14.7 8.9 4.4 50 4.8 SSW 24 35 13 19 1012.5 1012.0 0.0
08/09:00am 11.9 6.6 2.9 54 4.0 SSW 20 30 11 16 1012.4 1011.9 0.0
08/08:30am 11.6 5.9 3.1 56 3.8 SW 22 39 12 21 1012.0 1011.4 0.0
08/08:00am 10.2 5.0 3.5 63 3.0 WSW 20 30 11 16 1011.8 1011.2 0.0
08/07:30am 9.6 5.0 3.8 67 2.6 WSW 17 22 9 12 1011.1 1010.6 0.0
08/07:00am 9.3 5.5 3.7 68 2.5 WSW 13 19 7 10 1010.6 1010.1 0.0
08/06:30am 8.0 4.5 3.5 73 1.9 WSW 11 15 6 8 1010.2 1009.7 0.0
08/06:00am 7.5 3.5 3.0 73 1.9 WSW 13 19 7 10 1009.9 1009.4 0.0
08/05:30am 7.1 3.1 2.8 74 1.8 WSW 13 19 7 10 1009.5 1009.0 0.0
08/05:00am 7.7 2.9 2.8 71 2.1 WSW 17 20 9 11 1009.2 1008.7 0.0
08/04:30am 8.1 2.9 2.6 68 2.3 WSW 19 26 10 14 1008.9 1008.4 0.0
08/04:00am 8.6 3.2 2.4 65 2.6 WSW 20 26 11 14 1008.7 1008.2 0.0
08/03:30am 9.9 2.9 2.0 58 3.4 SW 28 39 15 21 1008.4 1007.9 0.0
08/03:00am 9.6 3.5 2.5 61 3.0 SW 24 39 13 21 1008.5 1008.0 0.0
08/02:30am 9.6 4.2 2.7 62 3.0 WSW 20 26 11 14 1008.2 1007.7 0.0
08/02:00am 9.9 4.7 2.5 60 3.2 WSW 19 26 10 14 1008.0 1007.5 0.0
08/01:30am 10.8 5.5 3.1 59 3.4 SW 20 28 11 15 1007.9 1007.4 0.0
08/01:00am 11.4 6.2 3.4 58 3.6 SW 20 32 11 17 1007.8 1007.3 0.0
08/12:30am 11.9 5.9 3.4 56 3.8 SW 24 35 13 19 1007.8 1007.3 0.0
08/12:00am 12.0 6.9 4.0 58 3.6 SW 20 30 11 16 1007.7 1007.2 0.0
 
Date/Time
EDT
Temp
°C
App
Temp
°C
Dew
Point
°C
Rel
Hum
%
Delta-T
°C
Wind Press
QNH
hPa
Press
MSL
hPa
Rain since
9am
mm
Dir  Spd
km/h
Gust
km/h
Spd
kts
Gust
kts
07/11:30pm 12.7 5.8 4.7 58 3.7 SW 30 46 16 25 1007.4 1006.9 0.0
07/11:00pm 14.4 7.4 6.0 57 4.1 SW 32 61 17 33 1006.8 1006.3 0.0
07/10:43pm 15.3 9.0 5.5 52 4.7 SW 28 46 15 25 1006.2 1005.6 0.0
07/10:30pm 15.3 9.3 5.2 51 4.8 SW 26 41 14 22 1005.8 1005.2 0.0
07/10:00pm 15.2 11.2 6.5 56 4.3 SW 17 28 9 15 1005.3 1004.7 0.0
07/09:30pm 16.1 11.2 7.1 55 4.5 SW 22 32 12 17 1004.5 1004.0 0.0
07/09:00pm 17.1 11.4 8.5 57 4.5 SW 28 39 15 21 1003.7 1003.2 0.0
07/08:30pm 18.5 13.5 9.6 56 4.7 SW 26 37 14 20 1002.8 1002.3 0.0
07/08:00pm 19.8 15.1 9.1 50 5.7 SW 24 37 13 20 1001.9 1001.4 0.0
07/07:32pm 21.3 15.1 9.9 48 6.2 SW 33 52 18 28 1001.3 1000.8 0.0
07/07:30pm 21.4 14.8 9.9 48 6.3 SW 35 52 19 28 1001.3 1000.8 0.0
07/07:22pm 21.4 15.5 10.3 49 6.1 SW 32 50 17 27 1001.0 1000.5 0.0
07/07:00pm 22.7 16.5 10.2 45 6.9 SW 33 46 18 25 1000.4 999.8 0.0
07/06:30pm 24.1 19.5 6.4 32 9.2 W 20 33 11 18 999.7 999.1 0.0
07/06:00pm 26.2 21.3 6.8 29 10.3 W 22 32 12 17 999.7 999.1 0.0

Other formats

Comma delimited format used in spreadsheet applications
http://www.bom.gov.au/fwo/IDV60801/IDV60801.94889.axf

JavaScript Object Notation format (JSON) in row-major order
http://www.bom.gov.au/fwo/IDV60801/IDV60801.94889.json

Data quality

Most of these data are generated automatically and are frequently updated. Quality checks on data are not normally performed. It is possible for incorrect values to appear. Refer to information at About Latest Weather Observations and please check the disclaimer before using these data.